Time;durP1;ratioP1;P1;durP2;ratioP2;P2;SDS_P1;SDS_P2;PMS_P1;PMS_P2;Temp;Humidity;BMP_temperature;BMP_pressure;BME280_temperature;BME280_humidity;BME280_pressure;Samples;Min_cycle;Max_cycle;Signal;HPM_P1;HPM_P2
2022/03/10 00:01:41;;;;;;;24.52;15.98;;;;;;;3.37;67.15;98878.88;4140265;28;20209;-83
2022/03/10 00:03:46;;;;;;;26.17;15.75;;;;;;;3.33;67.25;98888.38;4139195;28;20210;-83
2022/03/10 00:05:49;;;;;;;26.92;14.82;;;;;;;3.33;67.50;98893.53;4140732;28;20223;-82
2022/03/10 00:07:52;;;;;;;24.92;14.23;;;;;;;3.30;68.23;98890.22;4143007;28;20260;-83
2022/03/10 00:09:55;;;;;;;24.00;14.80;;;;;;;3.27;67.95;98896.28;4142184;28;20291;-83
2022/03/10 00:11:58;;;;;;;27.10;14.65;;;;;;;3.27;68.01;98894.63;4143944;28;20216;-83
2022/03/10 00:14:01;;;;;;;23.08;14.55;;;;;;;3.25;67.83;98888.63;4127633;28;20208;-83
2022/03/10 00:16:05;;;;;;;24.75;14.45;;;;;;;3.22;68.22;98897.31;4141693;28;20826;-83
2022/03/10 00:18:08;;;;;;;23.35;13.52;;;;;;;3.22;67.74;98896.44;4143027;28;20324;-83
2022/03/10 00:20:13;;;;;;;24.55;15.13;;;;;;;3.23;67.51;98898.16;4141292;28;20669;-83
2022/03/10 00:22:18;;;;;;;27.08;14.75;;;;;;;3.21;67.55;98897.34;4124091;28;20962;-83
2022/03/10 00:24:21;;;;;;;22.25;14.15;;;;;;;3.19;67.74;98894.81;4123066;28;20604;-84
2022/03/10 00:26:24;;;;;;;22.75;13.60;;;;;;;3.20;67.70;98898.22;4140355;28;20263;-82
2022/03/10 00:28:27;;;;;;;23.15;14.35;;;;;;;3.19;68.13;98905.13;4140898;28;20211;-83
2022/03/10 00:30:30;;;;;;;24.90;14.65;;;;;;;3.17;68.12;98894.00;4142981;28;20225;-83
2022/03/10 00:32:33;;;;;;;25.98;13.95;;;;;;;3.17;67.56;98895.72;4138556;28;20201;-82
2022/03/10 00:34:36;;;;;;;23.52;14.00;;;;;;;3.15;68.00;98897.50;4141646;28;20204;-83
2022/03/10 00:36:41;;;;;;;22.58;13.93;;;;;;;3.15;67.95;98889.78;4140570;28;20248;-82
2022/03/10 00:38:44;;;;;;;27.50;14.55;;;;;;;3.14;67.67;98904.38;4143565;28;20263;-83
2022/03/10 00:40:47;;;;;;;24.33;14.55;;;;;;;3.11;67.98;98906.19;4141237;28;20272;-83
2022/03/10 00:42:50;;;;;;;23.45;13.95;;;;;;;3.10;67.54;98904.53;4154106;28;20207;-84
2022/03/10 00:44:53;;;;;;;24.92;14.93;;;;;;;3.11;67.82;98911.34;4140540;28;20250;-83
2022/03/10 00:46:56;;;;;;;23.70;14.73;;;;;;;3.08;67.85;98907.13;4142216;28;20210;-83
2022/03/10 00:48:59;;;;;;;25.85;14.50;;;;;;;3.09;67.92;98906.22;4140642;28;20745;-83
2022/03/10 00:51:02;;;;;;;24.52;13.90;;;;;;;3.10;67.81;98907.09;4140361;28;20234;-83
2022/03/10 00:53:06;;;;;;;22.45;13.43;;;;;;;3.08;68.08;98912.28;4140342;28;20209;-83
2022/03/10 00:55:10;;;;;;;22.52;13.43;;;;;;;3.07;68.26;98905.44;4141685;28;20214;-83
2022/03/10 00:57:13;;;;;;;23.10;14.15;;;;;;;3.05;68.14;98909.78;4141423;28;20204;-82
2022/03/10 00:59:16;;;;;;;21.83;13.90;;;;;;;3.01;68.22;98900.44;4139454;28;20216;-84
2022/03/10 01:01:19;;;;;;;21.52;13.55;;;;;;;2.97;68.15;98903.13;4142806;28;20229;-83
2022/03/10 01:03:23;;;;;;;23.48;13.95;;;;;;;2.93;68.22;98910.09;4141383;28;20685;-83
2022/03/10 01:05:26;;;;;;;21.77;13.18;;;;;;;2.94;67.98;98903.22;4142481;28;20762;-83
2022/03/10 01:07:29;;;;;;;20.70;13.55;;;;;;;2.93;68.22;98909.25;4141932;28;20584;-83
2022/03/10 01:09:34;;;;;;;24.33;13.32;;;;;;;2.92;68.60;98905.00;4136082;28;20575;-83
2022/03/10 01:11:37;;;;;;;24.33;13.68;;;;;;;2.89;68.38;98908.47;4139233;28;20263;-83
2022/03/10 01:13:40;;;;;;;24.02;14.63;;;;;;;2.89;68.47;98913.63;4140819;28;20220;-83
2022/03/10 01:15:45;;;;;;;25.10;13.60;;;;;;;2.85;68.10;98913.75;4140585;28;20216;-83
2022/03/10 01:17:49;;;;;;;24.40;14.32;;;;;;;2.87;68.38;98911.97;4139889;28;20842;-84
2022/03/10 01:19:52;;;;;;;22.77;13.05;;;;;;;2.86;68.40;98908.56;4137202;28;20676;-83
2022/03/10 01:21:55;;;;;;;21.92;13.43;;;;;;;2.86;68.32;98902.56;4138244;28;20739;-83
2022/03/10 01:23:58;;;;;;;19.50;13.73;;;;;;;2.83;68.57;98905.22;4142048;28;20210;-83
2022/03/10 01:26:03;;;;;;;20.83;13.13;;;;;;;2.79;68.73;98909.59;4127721;28;20241;-83
2022/03/10 01:28:06;;;;;;;21.45;13.07;;;;;;;2.81;68.56;98907.84;4138869;28;20205;-82
2022/03/10 01:30:10;;;;;;;24.15;13.35;;;;;;;2.81;68.83;98906.97;4137643;28;20646;-84
2022/03/10 01:32:14;;;;;;;20.88;13.48;;;;;;;2.80;69.01;98906.13;4141569;28;20224;-83
2022/03/10 01:34:17;;;;;;;22.85;12.98;;;;;;;2.79;68.81;98906.16;4138530;28;20206;-84
2022/03/10 01:36:20;;;;;;;24.55;13.18;;;;;;;2.78;68.63;98901.06;4125407;28;20220;-83
2022/03/10 01:38:23;;;;;;;20.45;12.65;;;;;;;2.73;68.40;98900.34;4137861;28;20557;-84
2022/03/10 01:40:26;;;;;;;18.60;12.75;;;;;;;2.72;68.51;98888.34;4140219;28;20223;-83
2022/03/10 01:42:31;;;;;;;20.75;13.70;;;;;;;2.73;69.05;98898.59;4124409;28;20656;-83
2022/03/10 01:44:34;;;;;;;22.63;13.30;;;;;;;2.70;68.91;98896.09;4140229;28;20213;-83
2022/03/10 01:46:37;;;;;;;20.75;12.90;;;;;;;2.73;69.08;98901.16;4143598;28;20207;-83
2022/03/10 01:48:40;;;;;;;23.10;13.80;;;;;;;2.73;68.99;98892.63;4139701;28;20209;-83
2022/03/10 01:50:43;;;;;;;23.10;13.38;;;;;;;2.70;69.16;98890.94;4139015;28;20212;-83
2022/03/10 01:52:47;;;;;;;18.55;11.50;;;;;;;2.69;68.84;98891.00;4125650;28;20216;-83
2022/03/10 01:54:50;;;;;;;20.70;13.02;;;;;;;2.65;69.02;98889.41;4141180;28;20207;-83
2022/03/10 01:56:53;;;;;;;25.17;14.63;;;;;;;2.62;69.34;98880.00;4137108;28;20232;-83
2022/03/10 01:58:58;;;;;;;21.55;14.00;;;;;;;2.64;68.98;98885.94;4137007;28;20208;-83
2022/03/10 02:01:01;;;;;;;20.88;14.57;;;;;;;2.60;68.78;98883.50;4141702;28;20290;-83
2022/03/10 02:03:04;;;;;;;23.20;13.75;;;;;;;2.55;68.88;98881.03;4142614;28;20213;-84
2022/03/10 02:05:08;;;;;;;20.83;12.90;;;;;;;2.55;68.96;98881.03;4141354;28;20219;-83
2022/03/10 02:10:16;;;;;;;18.73;13.30;;;;;;;2.51;69.03;98879.44;4157017;28;20690;-83
2022/03/10 02:11:54;;;;;;;21.60;14.75;;;;;;;2.46;69.50;98882.97;4125886;28;20214;-83
2022/03/10 02:17:19;;;;;;;19.60;13.30;;;;;;;2.44;69.68;98877.88;4142124;28;20211;-83
2022/03/10 02:18:43;;;;;;;24.40;13.90;;;;;;;2.42;69.67;98884.78;4139121;28;20210;-84
2022/03/10 02:20:46;;;;;;;20.25;12.20;;;;;;;2.40;69.80;98888.28;4126670;28;21023;-83
2022/03/10 02:22:53;;;;;;;23.00;12.90;;;;;;;2.34;70.14;98878.97;4142313;28;20289;-83
2022/03/10 02:24:56;;;;;;;20.13;12.60;;;;;;;2.32;70.04;98885.03;4141725;28;20208;-83
2022/03/10 02:26:59;;;;;;;19.75;12.70;;;;;;;2.30;70.01;98897.09;4143119;28;20219;-85
2022/03/10 02:29:03;;;;;;;20.20;13.35;;;;;;;2.31;70.22;98897.94;4140954;28;20583;-83
2022/03/10 02:31:06;;;;;;;26.15;12.45;;;;;;;2.31;70.30;98900.50;4142552;28;20205;-83
2022/03/10 02:33:09;;;;;;;18.80;12.23;;;;;;;2.29;70.31;98900.56;4126917;28;20216;-83
2022/03/10 02:35:12;;;;;;;17.25;11.85;;;;;;;2.27;70.40;98897.19;4156860;28;20207;-83
2022/03/10 02:37:16;;;;;;;20.17;12.07;;;;;;;2.26;70.41;98892.91;4142049;28;20236;-83
2022/03/10 02:39:20;;;;;;;17.45;12.38;;;;;;;2.25;70.38;98898.09;4140121;28;20196;-83
2022/03/10 02:41:23;;;;;;;24.60;13.20;;;;;;;2.26;70.45;98903.19;4143012;28;20230;-83
2022/03/10 02:43:26;;;;;;;20.23;12.85;;;;;;;2.24;69.98;98896.38;4125197;28;20216;-82
2022/03/10 02:45:29;;;;;;;18.73;12.20;;;;;;;2.24;70.08;98901.53;4143111;28;20267;-83
2022/03/10 02:47:33;;;;;;;19.33;12.15;;;;;;;2.21;70.68;98899.03;4138883;28;20260;-83
2022/03/10 02:49:38;;;;;;;22.08;12.63;;;;;;;2.22;70.65;98903.28;4142053;28;20208;-83
2022/03/10 02:51:41;;;;;;;20.20;12.63;;;;;;;2.20;69.96;98903.34;4142140;28;20217;-84
2022/03/10 02:53:44;;;;;;;17.23;11.52;;;;;;;2.20;70.36;98912.78;4140628;28;20238;-83
2022/03/10 02:55:49;;;;;;;18.17;12.05;;;;;;;2.18;70.63;98902.53;4140622;28;20236;-83
2022/03/10 02:57:52;;;;;;;19.60;11.80;;;;;;;2.19;70.77;98908.50;4141194;28;20224;-83
2022/03/10 02:59:55;;;;;;;17.58;11.25;;;;;;;2.22;70.77;98913.59;4123643;28;20730;-83
2022/03/10 03:01:58;;;;;;;18.40;11.93;;;;;;;2.23;70.49;98910.16;4142793;28;20200;-83
2022/03/10 03:04:01;;;;;;;20.20;11.95;;;;;;;2.22;69.93;98923.88;4144762;28;20212;-83
2022/03/10 03:06:04;;;;;;;21.77;13.57;;;;;;;2.22;70.14;98919.56;4140270;28;21102;-83
2022/03/10 03:08:08;;;;;;;19.00;11.40;;;;;;;2.22;70.01;98923.88;4101819;28;1117216;-83
2022/03/10 03:10:11;;;;;;;19.27;11.80;;;;;;;2.19;70.46;98924.78;4141919;28;20226;-83
2022/03/10 03:12:16;;;;;;;20.60;12.00;;;;;;;2.20;70.66;98931.63;4158103;28;20651;-83
2022/03/10 03:14:22;;;;;;;20.13;12.68;;;;;;;2.19;70.22;98922.22;4142931;28;20216;-83
2022/03/10 03:16:26;;;;;;;19.05;11.60;;;;;;;2.20;70.35;98926.47;4121769;28;20209;-83
2022/03/10 03:18:29;;;;;;;19.30;11.80;;;;;;;2.22;70.57;98922.13;4143975;28;20230;-83
2022/03/10 03:20:32;;;;;;;16.17;11.93;;;;;;;2.22;70.35;98929.03;4145419;28;20224;-83
2022/03/10 03:22:35;;;;;;;20.13;12.35;;;;;;;2.22;70.49;98931.59;4143644;28;20204;-84
2022/03/10 03:24:38;;;;;;;18.33;11.98;;;;;;;2.20;70.73;98929.06;4140017;28;20655;-83
2022/03/10 03:26:41;;;;;;;19.63;12.65;;;;;;;2.20;70.12;98928.22;4139554;28;20228;-83
2022/03/10 03:28:46;;;;;;;19.73;12.48;;;;;;;2.20;70.51;98930.78;4140297;28;20215;-83
2022/03/10 03:30:50;;;;;;;17.35;12.13;;;;;;;2.20;70.31;98925.66;4139035;28;20214;-84
2022/03/10 03:32:53;;;;;;;19.50;12.73;;;;;;;2.15;70.48;98927.44;4121830;28;20236;-84
2022/03/10 03:34:56;;;;;;;19.80;12.13;;;;;;;2.15;70.96;98932.59;4139456;28;20554;-83
2022/03/10 03:36:59;;;;;;;19.35;12.07;;;;;;;2.14;70.73;98930.94;4139756;28;20745;-83
2022/03/10 03:39:02;;;;;;;17.70;13.07;;;;;;;2.10;70.30;98924.97;4143320;28;20216;-83
2022/03/10 03:41:05;;;;;;;18.73;11.50;;;;;;;2.14;70.92;98923.22;4141275;28;20216;-84
2022/03/10 03:43:08;;;;;;;17.30;11.60;;;;;;;2.13;70.48;98921.50;4137047;28;20204;-83
2022/03/10 03:45:12;;;;;;;19.00;11.45;;;;;;;2.09;70.37;98930.16;4137288;28;20204;-83
2022/03/10 03:47:16;;;;;;;19.85;12.85;;;;;;;2.10;71.08;98924.16;4140523;28;20207;-84
2022/03/10 03:49:19;;;;;;;18.50;13.20;;;;;;;2.09;70.94;98932.72;4142350;28;20673;-83
2022/03/10 03:51:22;;;;;;;20.83;13.00;;;;;;;2.07;70.86;98937.91;4142163;28;20671;-83
2022/03/10 03:53:25;;;;;;;18.15;12.32;;;;;;;2.06;70.93;98941.38;4141767;28;20200;-83
2022/03/10 03:55:28;;;;;;;18.20;12.27;;;;;;;2.04;70.76;98939.69;4137386;28;20207;-83
2022/03/10 03:57:31;;;;;;;20.25;13.57;;;;;;;2.02;70.70;98941.47;4142702;28;20215;-84
2022/03/10 03:59:34;;;;;;;20.15;12.52;;;;;;;1.99;71.18;98941.53;4142139;28;20207;-83
2022/03/10 04:01:38;;;;;;;19.42;13.20;;;;;;;1.96;70.73;98941.59;4141579;28;20216;-83
2022/03/10 04:03:42;;;;;;;20.30;12.60;;;;;;;1.92;71.33;98945.97;4139207;28;20311;-83
2022/03/10 04:05:45;;;;;;;17.80;12.40;;;;;;;1.90;71.23;98946.88;4139050;28;20231;-83
2022/03/10 04:07:49;;;;;;;18.17;12.30;;;;;;;1.88;71.44;98943.50;4142092;28;20208;-83
2022/03/10 04:09:52;;;;;;;22.77;12.85;;;;;;;1.87;71.61;98948.66;4142646;28;20216;-83
2022/03/10 04:11:55;;;;;;;18.90;13.02;;;;;;;1.87;71.03;98950.34;4131896;28;20238;-83
2022/03/10 04:13:58;;;;;;;18.35;13.10;;;;;;;1.87;71.58;98946.09;4144520;28;20282;-83
2022/03/10 04:16:01;;;;;;;19.17;12.45;;;;;;;1.85;71.47;98947.81;4136851;28;20786;-83
2022/03/10 04:18:12;;;;;;;19.08;12.88;;;;;;;1.83;71.54;98947.03;4142304;28;20242;-83
2022/03/10 04:20:15;;;;;;;21.15;13.65;;;;;;;1.81;71.54;98947.06;4139127;28;20212;-84
2022/03/10 04:22:18;;;;;;;18.35;12.57;;;;;;;1.80;71.44;98942.78;4143036;28;20236;-84
2022/03/10 04:24:21;;;;;;;21.75;13.02;;;;;;;1.80;71.94;98947.09;4141434;28;20207;-84
2022/03/10 04:26:25;;;;;;;21.20;14.35;;;;;;;1.77;71.33;98944.56;4144084;28;20824;-83
2022/03/10 04:28:28;;;;;;;19.08;12.68;;;;;;;1.76;71.33;98948.00;4142951;28;20833;-83
2022/03/10 04:30:32;;;;;;;17.92;11.98;;;;;;;1.74;72.33;98948.03;4140064;28;20258;-83
2022/03/10 04:32:41;;;;;;;22.48;13.05;;;;;;;1.74;71.98;98950.63;4141520;28;20204;-84
2022/03/10 04:34:45;;;;;;;20.02;12.77;;;;;;;1.74;72.02;98958.31;4139265;28;20265;-83
2022/03/10 04:36:48;;;;;;;19.20;12.88;;;;;;;1.71;71.64;98952.41;4124514;28;20566;-83
2022/03/10 04:38:51;;;;;;;24.48;15.10;;;;;;;1.71;71.76;98944.69;4139190;28;20211;-83
2022/03/10 04:40:54;;;;;;;19.75;13.10;;;;;;;1.67;72.02;98951.63;4139279;28;20234;-83
2022/03/10 04:42:59;;;;;;;19.13;13.00;;;;;;;1.68;72.15;98944.75;4141261;28;20208;-83
2022/03/10 04:45:03;;;;;;;17.80;12.15;;;;;;;1.65;71.81;98945.66;4142721;28;20346;-83
2022/03/10 04:47:06;;;;;;;22.48;13.63;;;;;;;1.61;71.99;98949.19;4141152;28;20207;-83
2022/03/10 04:49:10;;;;;;;18.83;13.63;;;;;;;1.60;72.30;98944.91;4141941;28;20755;-83
2022/03/10 04:51:14;;;;;;;20.35;13.20;;;;;;;1.59;72.43;98943.19;4138257;28;20211;-83
2022/03/10 04:53:17;;;;;;;20.13;11.85;;;;;;;1.59;71.91;98950.91;4141657;28;20613;-83
2022/03/10 04:55:20;;;;;;;21.10;12.73;;;;;;;1.58;72.12;98950.94;4140223;28;20208;-83
2022/03/10 04:57:26;;;;;;;18.50;12.65;;;;;;;1.60;72.46;98952.63;4140650;28;20207;-83
2022/03/10 04:59:31;;;;;;;19.67;13.13;;;;;;;1.58;72.43;98951.81;4142163;28;20294;-83
2022/03/10 05:01:34;;;;;;;22.15;12.65;;;;;;;1.57;72.14;98947.53;4138780;28;20314;-82
2022/03/10 05:03:37;;;;;;;17.67;12.48;;;;;;;1.61;72.46;98954.31;4144461;28;20844;-82
2022/03/10 05:05:40;;;;;;;22.52;13.32;;;;;;;1.61;71.66;98944.03;4142416;28;20250;-83
2022/03/10 05:07:45;;;;;;;21.10;13.13;;;;;;;1.62;72.23;98943.16;4139069;28;20207;-83
2022/03/10 05:09:48;;;;;;;17.10;12.25;;;;;;;1.60;72.06;98947.47;4120334;28;20656;-82
2022/03/10 05:11:51;;;;;;;20.38;12.38;;;;;;;1.58;72.58;98941.53;4142223;28;20703;-83
2022/03/10 05:13:54;;;;;;;21.98;13.45;;;;;;;1.61;72.61;98949.19;4125434;28;20219;-83
2022/03/10 05:15:57;;;;;;;21.98;12.93;;;;;;;1.56;72.07;98948.41;4139169;28;20211;-84
2022/03/10 05:18:01;;;;;;;16.75;12.38;;;;;;;1.56;72.68;98950.13;4142189;28;20779;-83
2022/03/10 05:20:05;;;;;;;18.83;12.30;;;;;;;1.55;72.72;98951.03;4140481;28;20219;-82
2022/03/10 05:22:10;;;;;;;17.58;12.05;;;;;;;1.54;72.58;98950.16;4141932;28;20282;-83
2022/03/10 05:24:15;;;;;;;20.13;12.13;;;;;;;1.54;72.64;98947.59;4142540;28;20274;-82
2022/03/10 05:26:18;;;;;;;19.35;12.35;;;;;;;1.54;72.33;98949.34;4141380;28;20254;-83
2022/03/10 05:28:21;;;;;;;20.20;12.75;;;;;;;1.56;72.43;98948.41;4139798;28;20201;-83
2022/03/10 05:30:25;;;;;;;17.67;11.80;;;;;;;1.56;72.29;98953.53;4157053;28;20237;-82
2022/03/10 05:32:28;;;;;;;17.75;11.98;;;;;;;1.55;72.50;98946.72;4124077;28;20212;-82
2022/03/10 05:34:31;;;;;;;20.08;12.93;;;;;;;1.53;72.60;98945.06;4141878;28;20196;-83
2022/03/10 05:36:36;;;;;;;21.90;12.98;;;;;;;1.49;72.61;98952.00;4125043;28;20290;-83
2022/03/10 05:38:39;;;;;;;20.35;12.77;;;;;;;1.46;72.29;98941.78;4137248;28;20215;-84
2022/03/10 05:40:43;;;;;;;24.60;12.80;;;;;;;1.48;72.70;98949.44;4138704;28;20671;-83
2022/03/10 05:42:47;;;;;;;18.38;13.02;;;;;;;1.47;72.41;98946.03;4139600;28;20227;-83
2022/03/10 05:44:50;;;;;;;23.10;13.23;;;;;;;1.47;72.77;98947.75;4141367;28;20258;-83
2022/03/10 05:46:53;;;;;;;20.67;14.20;;;;;;;1.48;72.92;98955.41;4122511;28;20239;-83
2022/03/10 05:48:56;;;;;;;20.92;13.80;;;;;;;1.45;72.78;98940.06;4143066;28;20218;-82
2022/03/10 05:50:59;;;;;;;28.60;13.98;;;;;;;1.48;72.57;98954.59;4140765;28;20208;-84
2022/03/10 05:53:03;;;;;;;22.40;15.15;;;;;;;1.47;72.83;98946.03;4139069;28;20286;-82
2022/03/10 05:55:07;;;;;;;21.25;14.35;;;;;;;1.47;73.00;98940.91;4138343;28;20310;-83
2022/03/10 05:57:12;;;;;;;20.25;13.90;;;;;;;1.50;72.74;98945.97;4140032;28;20199;-82
2022/03/10 05:59:15;;;;;;;18.85;13.07;;;;;;;1.50;72.51;98948.56;4138312;28;20655;-83
2022/03/10 06:01:18;;;;;;;22.08;14.30;;;;;;;1.50;72.37;98943.41;4135698;28;20218;-84
2022/03/10 06:03:23;;;;;;;21.38;14.27;;;;;;;1.47;73.20;98946.03;4138447;28;20220;-83
2022/03/10 06:05:26;;;;;;;20.73;13.98;;;;;;;1.49;73.16;98944.28;4139647;28;20902;-83
2022/03/10 06:07:30;;;;;;;23.83;13.88;;;;;;;1.52;72.67;98944.22;4142240;28;20211;-83
2022/03/10 06:09:33;;;;;;;23.05;13.95;;;;;;;1.68;72.62;98948.16;4139846;28;20586;-82
2022/03/10 06:11:36;;;;;;;20.45;13.48;;;;;;;1.91;72.75;98938.28;4159115;28;20682;-83
2022/03/10 06:13:40;;;;;;;23.15;14.30;;;;;;;2.16;72.31;98936.88;4140072;28;20253;-81
2022/03/10 06:15:43;;;;;;;20.25;13.20;;;;;;;2.34;71.85;98939.88;4124566;28;20232;-84
2022/03/10 06:17:46;;;;;;;19.10;13.30;;;;;;;2.50;71.32;98931.78;4140339;28;20640;-83
2022/03/10 06:19:50;;;;;;;20.77;13.73;;;;;;;2.67;71.54;98936.53;4133355;28;20212;-84
2022/03/10 06:21:53;;;;;;;21.98;14.27;;;;;;;2.82;71.01;98939.56;4118291;28;20611;-89
2022/03/10 06:23:56;;;;;;;23.77;14.50;;;;;;;2.97;70.48;98939.19;4138789;28;20219;-84
2022/03/10 06:26:00;;;;;;;20.92;13.50;;;;;;;3.14;70.63;98944.75;4138818;28;20204;-83
2022/03/10 06:28:04;;;;;;;21.58;14.20;;;;;;;3.32;69.83;98940.84;4144932;28;20203;-84
2022/03/10 06:30:09;;;;;;;20.58;14.38;;;;;;;3.49;68.85;98940.41;4140400;28;20211;-83
2022/03/10 06:32:13;;;;;;;20.17;13.27;;;;;;;3.67;68.82;98945.88;4140326;28;20240;-84
2022/03/10 06:34:16;;;;;;;20.65;13.88;;;;;;;3.82;67.63;98948.88;4145409;28;20213;-83
2022/03/10 06:36:19;;;;;;;21.48;14.68;;;;;;;3.96;67.68;98945.91;4144026;28;20240;-83
2022/03/10 06:38:22;;;;;;;19.13;12.95;;;;;;;4.11;66.68;98942.88;4138819;28;20299;-83
2022/03/10 06:40:26;;;;;;;21.77;14.23;;;;;;;4.22;67.55;98945.09;4126108;28;20216;-83
2022/03/10 06:42:30;;;;;;;20.02;14.02;;;;;;;4.37;66.00;98941.19;4142613;28;20873;-84
2022/03/10 06:44:35;;;;;;;21.10;14.70;;;;;;;4.50;67.06;98952.88;4136407;28;20591;-83
2022/03/10 06:46:39;;;;;;;19.20;12.82;;;;;;;4.66;65.82;98952.34;4120950;28;20250;-82
2022/03/10 06:48:42;;;;;;;20.15;12.88;;;;;;;4.80;66.05;98948.41;4123940;28;20623;-83
2022/03/10 06:50:45;;;;;;;18.73;12.57;;;;;;;4.95;65.66;98952.25;4137672;28;20273;-83
2022/03/10 06:52:52;;;;;;;18.25;13.57;;;;;;;5.10;66.26;98957.75;4142590;28;20303;-83
2022/03/10 06:54:55;;;;;;;19.10;13.75;;;;;;;5.22;64.96;98963.38;4143057;28;20243;-83
2022/03/10 06:56:58;;;;;;;23.85;15.13;;;;;;;5.33;64.72;98961.25;4143305;28;20246;-83
2022/03/10 06:59:01;;;;;;;22.13;15.18;;;;;;;5.45;64.26;98968.59;4141533;28;20203;-83
2022/03/10 07:01:04;;;;;;;24.25;15.90;;;;;;;5.59;64.56;98968.13;4140937;28;20202;-84
2022/03/10 07:03:08;;;;;;;20.65;13.30;;;;;;;5.72;63.54;98970.22;4146458;28;20226;-83
2022/03/10 07:05:12;;;;;;;18.92;13.75;;;;;;;5.88;63.82;98971.41;4144146;28;20257;-83
2022/03/10 07:07:15;;;;;;;23.13;15.57;;;;;;;6.06;63.84;98975.91;4145618;28;20619;-82
2022/03/10 07:09:19;;;;;;;23.38;14.00;;;;;;;6.15;62.74;98981.63;4142379;28;20210;-83
2022/03/10 07:11:23;;;;;;;20.80;14.20;;;;;;;6.28;63.88;98978.50;4143273;28;20269;-83
2022/03/10 07:13:26;;;;;;;20.88;13.77;;;;;;;6.48;63.46;98982.94;4137293;28;20211;-82
2022/03/10 07:15:31;;;;;;;21.52;13.32;;;;;;;6.65;62.82;98986.59;4127836;28;20214;-84
2022/03/10 07:17:34;;;;;;;27.42;13.85;;;;;;;6.80;61.70;98978.22;4140396;28;20207;-85
2022/03/10 07:19:38;;;;;;;24.00;14.43;;;;;;;6.94;62.62;98983.69;4140176;28;20212;-85
2022/03/10 07:21:42;;;;;;;22.08;13.57;;;;;;;7.04;62.11;98988.44;4138242;28;20570;-85
2022/03/10 07:23:45;;;;;;;20.80;13.45;;;;;;;7.19;60.80;98985.25;4122779;28;20224;-84
2022/03/10 07:25:48;;;;;;;20.60;13.20;;;;;;;7.28;61.62;98987.47;4144524;28;20214;-84
2022/03/10 07:27:51;;;;;;;21.13;13.63;;;;;;;7.46;61.31;98995.31;4146520;28;20211;-84
2022/03/10 07:29:54;;;;;;;17.73;13.30;;;;;;;7.62;61.96;98996.34;4143862;28;20587;-84
2022/03/10 07:31:57;;;;;;;20.13;13.52;;;;;;;7.80;60.50;99000.78;4126613;28;20735;-84
2022/03/10 07:34:01;;;;;;;17.02;12.55;;;;;;;7.92;59.97;98997.66;4141277;28;20673;-84
2022/03/10 07:36:06;;;;;;;24.35;12.63;;;;;;;8.02;59.10;98995.41;4138893;28;20572;-82
2022/03/10 07:38:10;;;;;;;21.30;13.77;;;;;;;8.17;59.83;98997.38;4143748;28;20246;-81
2022/03/10 07:40:14;;;;;;;21.95;13.30;;;;;;;8.30;59.81;98995.94;4128946;28;20655;-82
2022/03/10 07:42:17;;;;;;;20.77;13.93;;;;;;;8.41;58.31;98998.06;4127828;28;20209;-82
2022/03/10 07:44:20;;;;;;;20.23;13.20;;;;;;;8.53;58.11;98998.34;4146400;28;20212;-83
2022/03/10 07:46:23;;;;;;;17.42;13.30;;;;;;;8.61;57.79;99001.41;4126177;28;20256;-82
2022/03/10 07:48:26;;;;;;;19.65;13.65;;;;;;;8.81;58.71;99010.00;4139257;28;20233;-84
2022/03/10 07:50:29;;;;;;;18.35;12.70;;;;;;;8.91;57.30;99013.84;4130587;28;20677;-84
2022/03/10 07:52:34;;;;;;;17.30;12.43;;;;;;;9.05;59.42;99004.47;4153719;28;20218;-84
2022/03/10 07:54:39;;;;;;;18.17;13.05;;;;;;;9.25;57.91;99011.31;4142828;28;20240;-84
2022/03/10 07:56:42;;;;;;;20.08;14.10;;;;;;;9.34;56.74;99009.13;4127832;28;20208;-83
2022/03/10 07:58:45;;;;;;;18.40;14.30;;;;;;;9.38;57.79;99018.44;4127808;28;20269;-83
2022/03/10 08:00:49;;;;;;;16.83;12.82;;;;;;;9.52;58.01;99016.03;4144384;28;20860;-83
2022/03/10 08:02:53;;;;;;;19.45;13.32;;;;;;;9.59;56.76;99005.22;4138783;28;20214;-83
2022/03/10 08:04:56;;;;;;;20.88;14.73;;;;;;;9.76;57.84;99013.03;4126731;28;20299;-83
2022/03/10 08:06:59;;;;;;;18.53;13.40;;;;;;;9.96;57.15;99011.13;4125333;28;20263;-83
2022/03/10 08:09:06;;;;;;;17.63;12.60;;;;;;;10.09;56.79;99019.19;4143703;28;20660;-83
2022/03/10 08:11:09;;;;;;;24.47;15.40;;;;;;;10.18;56.55;99008.25;4142845;28;20662;-83
2022/03/10 08:13:12;;;;;;;18.53;13.47;;;;;;;10.32;57.42;99002.22;4147073;28;20653;-84
2022/03/10 08:15:15;;;;;;;20.30;15.10;;;;;;;10.41;nan;99001.75;4123905;28;20645;-83
2022/03/10 08:17:19;;;;;;;19.50;14.10;;;;;;;10.40;55.65;99002.69;4143452;28;20696;-84
2022/03/10 08:19:22;;;;;;;16.27;12.53;;;;;;;10.51;55.50;99002.13;4144873;28;21263;-83
2022/03/10 08:21:26;;;;;;;16.77;12.57;;;;;;;10.59;55.38;99008.59;4144261;28;20624;-84
2022/03/10 08:23:29;;;;;;;18.20;14.20;;;;;;;10.74;55.38;99001.72;4140455;28;21216;-83
2022/03/10 08:25:34;;;;;;;19.43;12.43;;;;;;;10.83;55.38;99000.28;4142430;28;20637;-82
2022/03/10 08:27:37;;;;;;;21.23;13.30;;;;;;;10.99;56.06;99005.47;4139920;28;20900;-82
2022/03/10 08:29:40;;;;;;;17.20;12.70;;;;;;;11.12;55.01;99002.09;4142023;28;20642;-80
2022/03/10 08:31:47;;;;;;;17.53;13.67;;;;;;;11.28;55.49;98998.56;4127706;28;20640;-81
2022/03/10 08:33:51;;;;;;;22.50;14.30;;;;;;;11.43;54.19;98996.84;4124459;28;20682;-81
2022/03/10 08:35:54;;;;;;;17.53;13.10;;;;;;;11.60;55.11;98997.59;4142327;28;20635;-81
2022/03/10 08:37:57;;;;;;;16.50;13.07;;;;;;;11.72;53.97;98989.03;4126118;28;20644;-81
2022/03/10 08:40:00;;;;;;;19.80;14.13;;;;;;;11.85;55.69;98990.00;4138448;28;20636;-81
2022/03/10 08:42:06;;;;;;;18.43;13.57;;;;;;;11.92;55.65;98984.34;4138156;28;20755;-81
2022/03/10 08:44:10;;;;;;;18.13;14.43;;;;;;;12.09;55.26;98989.38;4137654;28;20659;-81
2022/03/10 08:46:13;;;;;;;23.03;13.87;;;;;;;12.27;54.62;98985.66;4141331;28;20634;-80
2022/03/10 08:48:17;;;;;;;24.40;17.83;;;;;;;12.45;57.34;98972.28;4140732;28;20683;-81
2022/03/10 08:50:20;;;;;;;22.30;17.80;;;;;;;12.70;56.54;98982.91;4154012;28;21211;-81
2022/03/10 08:52:23;;;;;;;18.30;14.17;;;;;;;12.84;56.92;98977.69;4140391;28;20685;-81
2022/03/10 08:54:26;;;;;;;19.37;14.00;;;;;;;12.93;53.87;98975.34;4140327;28;20619;-81
2022/03/10 08:56:30;;;;;;;20.10;14.00;;;;;;;13.06;55.62;98972.75;4121191;28;20638;-82
2022/03/10 08:58:34;;;;;;;15.90;11.87;;;;;;;13.23;53.06;98978.63;4141489;28;21300;-81
2022/03/10 09:00:37;;;;;;;18.70;14.03;;;;;;;13.29;53.12;98972.94;4141774;28;21024;-81
2022/03/10 09:02:41;;;;;;;15.93;13.20;;;;;;;13.43;53.85;98972.91;4141979;28;20664;-81
2022/03/10 09:04:46;;;;;;;18.80;14.40;;;;;;;13.59;53.89;98970.94;4140701;28;20692;-80
2022/03/10 09:06:49;;;;;;;16.20;13.13;;;;;;;13.67;54.40;98972.13;4138786;28;20724;-81
2022/03/10 09:08:52;;;;;;;16.60;13.80;;;;;;;13.73;53.82;98969.94;4141112;28;20646;-81
2022/03/10 09:10:56;;;;;;;17.23;13.70;;;;;;;13.86;53.67;98965.56;4140637;28;20638;-81
2022/03/10 09:13:01;;;;;;;20.03;13.90;;;;;;;14.02;53.30;98960.94;4144295;28;20731;-82
2022/03/10 09:15:06;;;;;;;14.70;10.07;;;;;;;14.15;52.13;98953.94;4142064;28;20692;-82
2022/03/10 09:17:10;;;;;;;11.60;7.97;;;;;;;14.25;49.71;98950.59;4140424;28;21049;-82
2022/03/10 09:19:13;;;;;;;10.40;7.87;;;;;;;14.48;50.15;98959.47;4141122;28;20660;-81
2022/03/10 09:21:17;;;;;;;9.30;7.60;;;;;;;14.68;48.75;98957.94;4140018;28;20648;-81
2022/03/10 09:23:20;;;;;;;7.93;6.53;;;;;;;14.68;47.01;98957.94;4125415;28;21084;-82
2022/03/10 09:25:23;;;;;;;9.60;7.00;;;;;;;14.64;46.30;98950.41;4140116;28;20703;-81
2022/03/10 09:27:26;;;;;;;9.00;6.33;;;;;;;14.67;46.08;98950.19;4139693;28;20726;-82
2022/03/10 09:29:29;;;;;;;10.57;6.63;;;;;;;14.76;47.17;98945.13;4140519;28;20649;-81
2022/03/10 09:31:34;;;;;;;8.67;6.30;;;;;;;14.94;46.02;98958.72;4141570;28;20732;-82
2022/03/10 09:33:37;;;;;;;9.70;6.93;;;;;;;14.91;45.06;98944.00;4142889;28;21287;-82
2022/03/10 09:35:40;;;;;;;9.50;7.30;;;;;;;14.93;43.92;98938.66;4139703;28;20646;-82
2022/03/10 09:37:43;;;;;;;8.33;6.10;;;;;;;14.99;44.66;98946.94;4141553;28;21200;-81
2022/03/10 09:39:46;;;;;;;10.23;7.10;;;;;;;15.08;45.58;98941.84;4124774;28;20635;-82